Aérodrome :
LOGIN :

S'inscrire | Disclaimer

   EN    FR    IT 

 










Légende :    VFR   VFR Marginal   IFR   IFR Intensif   IFR Très Intensif
Visi : 
Plafond : 
>= 8 km
>= 3000ft
5 à 8 km
1000 à 3000 ft
1500m à 5 km
500 à 1000 ft
800 à 1500m
200 à 500 ft
< 800m
< 200 ft
Symboles :   Orages  Brouillard  Fortes neiges  Fortes précipitations  Vent > 20 kt
SIGMETs :   Divers  Orages  Givrage  Turbulence  Onde Orograph.  Cendres Volcan.






- Altitude de l'aérodrome : 502 ft
- Code IATA : ORK


EICK - Cork

DERNIER METAR :
  • 101000Z 08005KT 9999 FEW001 SCT150 BKN250 12/09 Q1021 NOSIG

METARs EXPIRÉS :
  • 100930Z 04005KT 9999 FEW001 BKN250 12/09 Q1021 NOSIG
  • 100900Z 05002KT 360V080 9999 FEW001 SCT140 BKN250 11/09 Q1021 NOSIG
  • 100830Z 07002KT 020V110 8000 FEW001 BKN140 BKN250 11/08 Q1021 BECMG 9999
  • 100800Z 09008KT 6000 FEW001 BKN140 BKN250 11/08 Q1021 BECMG 9999
  • 100730Z 09007KT 7000 FEW001 BKN140 BKN250 10/08 Q1021 BECMG 9999

TAF TAF EICK
Valide du 10 à 06h jusqu'au 11 à 06h UTC


100500Z 1006/1106 VRB03KT 9999 FEW018
TEMPO 1006/1008 4000 BR SCT003
PROB30
TEMPO 1006/1007 0500 FG BKN002
BECMG 1010/1012 13005KT
BECMG 1012/1014 17007KT
BECMG 1016/1018 VRB03KT
BECMG 1022/1024 32007KT
PROB40
TEMPO 1023/1106 3000 BR FEW005
PROB30
TEMPO 1023/1106 1200 BKN003



MET'MAP, la Météo Aéronautique d'un coup d'oeil ! - Copyright ORBIFLY Décembre 2007 - Disclaimer

ORBIFLY MET'MAP TEAM :

Programmation & Développement : Alexandra Zaïnal
Sur une idée originale de : Baudouin d'Aumeries
Assistance à la programmation : Marc-Olivier Méhu
Soutien technique & logistique : Manuel Goepfert

Contact : metmap@orbifly.com




SOURCES & CREDITS :

   NOAA